Kountze, TX (77625)

4:54 PM CDT on September 01, 2015 (GMT -0500)
Henderson | | Change Station
CLOSE
Current Station
Personal Weather Station
Location: Kountze, TX
Elevation: 83 ft
Nearby Weather Stations

Elev 83 ft 30.34 °N, 94.28 °W | Updated 13 seconds ago

Thunderstorm
Thunderstorm
77.4 °F
Feels Like 79 °F
N
2.0
Wind Variable Wind from SSE
Gusts 3.4 mph

Today
High -- | Low -- °F
--% Chance of Precip.
Yesterday
High -- | Low -- °F
Precip. -- in
6:53 AM 7:40 PM
Waning Gibbous, 86% visible
Pressure 30.05 in
Visibility 10.0 miles
Clouds Clear
Heat Index 79 °F
Dew Point 74 °F
Humidity 91%
Rainfall 0.17 in
Snow Depth Not available.
UV 0.0 out of 12
Pollen 5.70 out of 12
Air Quality Not available.
Flu Activity Not available.
METAR KBMT 012135Z AUTO 00000KT 10SM -DZ CLR 24/23 A3005 RMK AO2 T02380228
Pressure 30.05 in
Visibility 10.0 miles
Clouds Clear
Heat Index 79 °F
Dew Point 74 °F
Humidity 91%
Rainfall 0.17 in
Snow Depth Not available.
UV 0.0 out of 12
Pollen 5.70 out of 12
Air Quality Not available.
Flu Activity Not available.
METAR KBMT 012135Z AUTO 00000KT 10SM -DZ CLR 24/23 A3005 RMK AO2 T02380228
Nowcast | as of 4:30 PM CDT on September 1, 2015

Through 5:30 PM...a complex of mainly light to moderate rain...with a few embedded thunderstorms...will continue to move north at 10 mph...and from the Gulf of Mexico into lower southeast Texas and southwest Louisiana. Also...scattered thunderstorms will be located over parts of central and south central Louisiana. Some of the stronger storms will be located over Vernon Parish between Fort Polk and Anacoco...over northern Jeff Davis and southern Allen between Fenton and Oberlin...as well as over northern Lafayette and southern Saint Landry between Scott and Grand Coteau. Occasional cloud to ground lightning...wind gusts to 25 mph..and rainfall rates around one inch per hour can be expected with these storms.

×

10-Day Weather Forecast

×

Almanac

Astronomy

Sep. 01, 2015 Rise Set
Actual Time
Civil Twilight
Nautical Twilight
Astronomical Twilight
Moon
Length of Visible Light
Length of Day
Tomorrow will be .
, % of the Moon is Illuminated

Today's Extremes

State Highs State Lows

Community

WunderPhotos

Upload Photos

1,851,628 photos uploaded!

WunderBlogs® & News

Nearby

Air Quality

  Air Quality AQ Index Pollutant
Not available.

Snow Depth

Station Depth Elevation

Earthquake Activity

City Distance Mag. Time & Date
Minimum magnitude displayed is 2.5.

Coastal Water Temperatures

Place Temperature

Stations

Nearby Weather Stations

Station Location Temp. Windchill Dew Point Humidity Wind Precip. Elev Updated Type